createdAt,value
2023-01-27T00:01:00.755Z,101711.34
2023-01-27T00:03:29.353Z,101718.09
2023-01-27T00:05:58.742Z,101714.34
2023-01-27T00:08:28.752Z,101708.16
2023-01-27T00:11:39.569Z,101708.25
2023-01-27T00:14:07.181Z,101706.63
2023-01-27T00:16:35.590Z,101709.22
2023-01-27T00:19:03.177Z,101699.72
2023-01-27T00:21:49.694Z,101691.16
2023-01-27T00:24:35.785Z,101695.41
2023-01-27T00:27:10.973Z,101696.41
2023-01-27T00:29:40.270Z,101692.69
2023-01-27T00:32:26.821Z,101690.22
2023-01-27T00:34:54.386Z,101685.25
2023-01-27T00:37:21.915Z,101685.34
2023-01-27T00:39:49.953Z,101673.34
2023-01-27T00:42:17.565Z,101683.41
2023-01-27T00:45:05.061Z,101668.91
2023-01-27T00:47:34.015Z,101663.47
2023-01-27T00:50:02.023Z,101663.53
2023-01-27T00:52:30.046Z,101662.63
2023-01-27T00:54:59.968Z,101658.31
2023-01-27T00:57:27.792Z,101656.53
2023-01-27T00:59:55.339Z,101656.66
2023-01-27T01:02:23.577Z,101656.56
2023-01-27T01:04:51.395Z,101651.41
2023-01-27T01:07:19.289Z,101645.22
2023-01-27T01:09:46.832Z,101641.94
2023-01-27T01:12:14.443Z,101634.47
2023-01-27T01:14:42.153Z,101638.75
2023-01-27T01:17:10.427Z,101634.91
2023-01-27T01:19:38.313Z,101634.94
2023-01-27T01:22:05.914Z,101623.78
2023-01-27T01:24:33.804Z,101611.66
2023-01-27T01:27:01.426Z,101611.63
2023-01-27T01:29:29.189Z,101590.84
2023-01-27T01:32:02.132Z,101601.97
2023-01-27T01:34:32.886Z,101597.88
2023-01-27T01:37:00.505Z,101599.69
2023-01-27T01:39:29.366Z,101610.91
2023-01-27T01:41:58.159Z,101614.34
2023-01-27T01:44:31.522Z,101603.16
2023-01-27T01:47:00.694Z,101598.97
2023-01-27T01:49:35.226Z,101598.88
2023-01-27T01:52:16.044Z,101612.59
2023-01-27T01:54:56.272Z,101602.88
2023-01-27T01:57:32.092Z,101592.53
2023-01-27T02:00:07.688Z,101583.22
2023-01-27T02:02:42.352Z,101584.13
2023-01-27T02:05:19.229Z,101580.66
2023-01-27T02:08:09.732Z,101577.22
2023-01-27T02:10:38.914Z,101573.03
2023-01-27T02:13:06.461Z,101570.34
2023-01-27T02:15:39.105Z,101579.81
2023-01-27T02:18:07.768Z,101567.03
2023-01-27T02:20:45.845Z,101568.72
2023-01-27T02:23:32.142Z,101568.75
2023-01-27T02:26:11.488Z,101570.69
2023-01-27T02:28:40.474Z,101572.34
2023-01-27T02:31:08.271Z,101575.66
2023-01-27T02:33:36.057Z,101579.94
2023-01-27T02:36:07.409Z,101593.72
2023-01-27T02:38:39.032Z,101596.09
2023-01-27T02:41:14.325Z,101599.56
2023-01-27T02:43:42.481Z,101589.13
2023-01-27T02:46:10.484Z,101595.44
2023-01-27T02:48:38.542Z,101591.34
2023-01-27T02:51:06.155Z,101584.47
2023-01-27T02:53:35.740Z,101584.53
2023-01-27T02:56:03.406Z,101580.31
2023-01-27T02:58:31.780Z,101583.00
2023-01-27T03:01:09.825Z,101584.75
2023-01-27T03:03:44.252Z,101577.94
2023-01-27T03:06:12.038Z,101576.91
2023-01-27T03:08:40.000Z,101562.34
2023-01-27T03:11:08.590Z,101566.66
2023-01-27T03:13:37.272Z,101570.91
2023-01-27T03:16:24.689Z,101556.19
2023-01-27T03:18:56.554Z,101557.69
2023-01-27T03:21:24.242Z,101560.41
2023-01-27T03:23:52.259Z,101559.50
2023-01-27T03:26:23.082Z,101563.97
2023-01-27T03:29:13.909Z,101564.78
2023-01-27T03:31:44.273Z,101562.09
2023-01-27T03:34:11.974Z,101565.44
2023-01-27T03:37:05.271Z,101572.31
2023-01-27T03:39:51.669Z,101572.31
2023-01-27T03:42:37.762Z,101568.88
2023-01-27T03:45:24.757Z,101568.75
2023-01-27T03:47:52.361Z,101558.44
2023-01-27T03:50:37.745Z,101552.50
2023-01-27T03:53:06.147Z,101544.97
2023-01-27T03:55:36.132Z,101549.91
2023-01-27T03:58:18.349Z,101551.00
2023-01-27T04:00:56.891Z,101553.50
2023-01-27T04:03:46.155Z,101548.47
2023-01-27T04:06:38.347Z,101553.03
2023-01-27T04:09:07.570Z,101554.09
2023-01-27T04:11:53.636Z,101561.97
2023-01-27T04:14:35.734Z,101557.81
2023-01-27T04:17:07.695Z,101560.47
2023-01-27T04:19:35.483Z,101569.22
2023-01-27T04:22:03.998Z,101560.53
2023-01-27T04:24:33.922Z,101566.44
2023-01-27T04:27:09.766Z,101559.44
2023-01-27T04:29:41.232Z,101559.28
2023-01-27T04:32:13.985Z,101562.84
2023-01-27T04:34:42.153Z,101560.25
2023-01-27T04:37:10.310Z,101551.56
2023-01-27T04:39:41.493Z,101537.09
2023-01-27T04:42:09.025Z,101543.78
2023-01-27T04:44:36.744Z,101544.59
2023-01-27T04:47:06.382Z,101547.22
2023-01-27T04:49:33.978Z,101547.22
2023-01-27T04:52:01.584Z,101549.28
2023-01-27T04:54:29.321Z,101545.00
2023-01-27T04:57:00.161Z,101540.78
2023-01-27T04:59:28.002Z,101545.03
2023-01-27T05:01:55.936Z,101561.47
2023-01-27T05:04:26.453Z,101556.97
2023-01-27T05:06:54.452Z,101559.47
2023-01-27T05:09:22.389Z,101558.63
2023-01-27T05:11:50.292Z,101561.84
2023-01-27T05:14:17.899Z,101564.59
2023-01-27T05:16:45.711Z,101568.16
2023-01-27T05:19:14.096Z,101564.69
2023-01-27T05:21:43.401Z,101578.97
2023-01-27T05:24:11.542Z,101585.25
2023-01-27T05:26:42.766Z,101589.59
2023-01-27T05:29:10.388Z,101588.69
2023-01-27T05:31:38.319Z,101585.47
2023-01-27T05:34:06.044Z,101594.22
2023-01-27T05:36:33.902Z,101599.53
2023-01-27T05:39:01.799Z,101584.97
2023-01-27T05:41:33.402Z,101583.75
2023-01-27T05:44:01.013Z,101576.91
2023-01-27T05:46:31.149Z,101583.88
2023-01-27T05:49:06.469Z,101589.19
2023-01-27T05:51:37.570Z,101587.19
2023-01-27T05:54:05.496Z,101582.81
2023-01-27T05:56:33.680Z,101589.94
2023-01-27T05:59:01.351Z,101585.41
2023-01-27T06:01:31.420Z,101594.88
2023-01-27T06:03:59.502Z,101599.53
2023-01-27T06:06:29.155Z,101595.34
2023-01-27T06:08:57.466Z,101599.66
2023-01-27T06:11:26.018Z,101593.47
2023-01-27T06:13:54.537Z,101590.69
2023-01-27T06:16:23.696Z,101587.31
2023-01-27T06:18:51.895Z,101588.31
2023-01-27T06:21:20.966Z,101580.66
2023-01-27T06:23:49.338Z,101578.22
2023-01-27T06:26:19.535Z,101586.81
2023-01-27T06:28:48.024Z,101582.59
2023-01-27T06:31:19.026Z,101588.53
2023-01-27T06:33:47.320Z,101589.44
2023-01-27T06:36:18.319Z,101583.34
2023-01-27T06:38:46.616Z,101581.56
2023-01-27T06:41:14.213Z,101581.63
2023-01-27T06:43:42.245Z,101573.88
2023-01-27T06:46:09.914Z,101567.75
2023-01-27T06:48:40.595Z,101571.09
2023-01-27T06:51:10.483Z,101575.59
2023-01-27T06:53:38.905Z,101567.94
2023-01-27T06:56:07.131Z,101575.53
2023-01-27T06:58:35.135Z,101569.56
2023-01-27T07:01:06.474Z,101568.84
2023-01-27T07:06:00.790Z,101573.22
2023-01-27T07:08:28.722Z,101573.25
2023-01-27T07:10:57.768Z,101562.25
2023-01-27T07:13:25.993Z,101569.22
2023-01-27T07:15:56.815Z,101560.50
2023-01-27T07:18:24.602Z,101553.63
2023-01-27T07:20:52.465Z,101558.09
2023-01-27T07:23:20.024Z,101558.25
2023-01-27T07:25:47.537Z,101554.09
2023-01-27T07:28:15.366Z,101551.50
2023-01-27T07:30:44.159Z,101553.31
2023-01-27T07:33:15.460Z,101549.09
2023-01-27T07:35:43.193Z,101549.09
2023-01-27T07:38:11.243Z,101543.94
2023-01-27T10:54:29.963Z,101342.03
2023-01-27T10:57:03.160Z,101335.94
2023-01-27T11:00:17.350Z,101337.69
2023-01-27T11:02:58.870Z,101332.50
2023-01-27T11:05:37.142Z,101327.19
2023-01-27T11:08:12.396Z,101321.94
2023-01-27T11:11:02.980Z,101312.38
2023-01-27T11:13:33.412Z,101310.63
2023-01-27T11:16:02.176Z,101299.34
2023-01-27T11:18:34.207Z,101301.03
2023-01-27T11:21:34.456Z,101302.84
2023-01-27T11:24:16.700Z,101316.59
2023-01-27T11:26:50.485Z,101304.41
2023-01-27T11:29:43.113Z,101301.84
2023-01-27T11:32:18.951Z,101303.59
2023-01-27T11:34:58.054Z,101304.53
2023-01-27T11:37:37.455Z,101306.28
2023-01-27T11:40:22.802Z,101313.19
2023-01-27T11:42:51.956Z,101300.16
2023-01-27T11:45:21.438Z,101298.38
2023-01-27T11:47:53.073Z,101295.72
2023-01-27T11:50:24.847Z,101302.66
2023-01-27T11:53:11.423Z,101304.41
2023-01-27T11:55:43.633Z,101295.66
2023-01-27T11:58:26.581Z,101306.06
2023-01-27T12:01:00.863Z,101293.06
2023-01-27T12:04:07.037Z,101280.81
2023-01-27T12:07:28.473Z,101290.31
2023-01-27T12:09:58.402Z,101278.97
2023-01-27T12:12:27.975Z,101279.97
2023-01-27T12:15:00.334Z,101271.19
2023-01-27T12:17:41.018Z,101254.56
2023-01-27T12:20:17.613Z,101256.22
2023-01-27T12:22:49.263Z,101258.75
2023-01-27T12:25:24.841Z,101260.38
2023-01-27T12:27:57.271Z,101263.81
2023-01-27T12:30:28.882Z,101262.19
2023-01-27T12:32:58.943Z,101262.13
2023-01-27T12:35:36.025Z,101265.72
2023-01-27T12:38:11.656Z,101256.31
2023-01-27T12:40:44.960Z,101264.97
2023-01-27T12:43:19.981Z,101264.00
2023-01-27T12:46:02.728Z,101267.28
2023-01-27T12:48:34.160Z,101265.50
2023-01-27T12:51:35.987Z,101273.13
2023-01-27T12:54:23.473Z,101267.78
2023-01-27T12:56:54.437Z,101261.69
2023-01-27T12:59:25.912Z,101260.78
2023-01-27T13:01:58.361Z,101259.06
2023-01-27T13:04:27.294Z,101265.88
2023-01-27T13:07:03.429Z,101278.91
2023-01-27T13:09:34.821Z,101279.53
2023-01-27T13:12:12.658Z,101272.38
2023-01-27T13:14:42.987Z,101267.25
2023-01-27T13:17:49.144Z,101278.66
2023-01-27T13:20:35.216Z,101285.50
2023-01-27T13:23:10.983Z,101280.41
2023-01-27T13:31:21.407Z,101274.47
2023-01-27T13:33:55.688Z,101271.97
2023-01-27T13:36:38.053Z,101265.84
2023-01-27T13:39:27.163Z,101266.81
2023-01-27T13:42:02.333Z,101268.66
2023-01-27T13:44:39.455Z,101259.28
2023-01-27T13:47:18.353Z,101263.66
2023-01-27T13:49:50.651Z,101261.84
2023-01-27T13:52:18.518Z,101264.44
2023-01-27T13:54:46.096Z,101262.63
2023-01-27T13:57:40.515Z,101261.78
2023-01-27T14:01:01.030Z,101265.47
2023-01-27T14:03:54.495Z,101266.41
2023-01-27T14:06:56.192Z,101266.47
2023-01-27T14:11:08.504Z,101267.25
2023-01-27T14:13:39.850Z,101271.66
2023-01-27T14:16:18.974Z,101263.03
2023-01-27T14:19:04.833Z,101253.53
2023-01-27T14:21:41.304Z,101253.53
2023-01-27T14:24:24.313Z,101260.56
2023-01-27T14:27:19.624Z,101264.97
2023-01-27T14:29:59.329Z,101254.53
2023-01-27T14:32:39.860Z,101263.25
2023-01-27T14:35:55.156Z,101249.34
2023-01-27T14:38:34.580Z,101247.63
2023-01-27T14:41:02.079Z,101246.72
2023-01-27T14:43:46.793Z,101248.50
2023-01-27T14:46:44.914Z,101241.59
2023-01-27T14:49:32.123Z,101252.00
2023-01-27T14:52:13.584Z,101248.59
2023-01-27T14:55:00.006Z,101240.78
2023-01-27T14:58:02.246Z,101240.84
2023-01-27T15:00:52.471Z,101244.28
2023-01-27T15:04:02.265Z,101255.59
2023-01-27T15:06:56.075Z,101247.00
2023-01-27T15:09:43.190Z,101242.69
2023-01-27T15:12:19.865Z,101256.59
2023-01-27T15:15:12.876Z,101247.09
2023-01-27T15:17:59.451Z,101241.06
2023-01-27T15:20:30.619Z,101249.69
2023-01-27T15:23:32.862Z,101252.31
2023-01-27T15:26:06.707Z,101250.56
2023-01-27T15:28:39.380Z,101235.88
2023-01-27T15:31:21.602Z,101237.63
2023-01-27T15:34:01.537Z,101231.56
2023-01-27T15:36:32.188Z,101235.09
2023-01-27T15:39:09.129Z,101237.69
2023-01-27T15:42:01.580Z,101238.50
2023-01-27T15:44:31.684Z,101236.81
2023-01-27T15:47:11.473Z,101241.22
2023-01-27T15:50:00.972Z,101244.69
2023-01-27T15:52:46.246Z,101246.44
2023-01-27T16:00:55.374Z,101249.94
2023-01-27T16:03:35.444Z,101240.44
2023-01-27T16:06:12.361Z,101252.56
2023-01-27T16:08:52.486Z,101256.06
2023-01-27T16:11:29.193Z,101244.81
2023-01-27T16:14:12.132Z,101245.69
2023-01-27T16:16:41.678Z,101244.84
2023-01-27T16:19:25.073Z,101254.38
2023-01-27T16:22:01.881Z,101256.97
2023-01-27T16:24:47.885Z,101260.47
2023-01-27T16:27:31.648Z,101256.13
2023-01-27T19:42:41.892Z,101194.88
2023-01-27T19:45:15.861Z,101191.41
2023-01-27T19:47:47.113Z,101196.59
2023-01-27T19:50:28.153Z,101188.78
2023-01-27T19:52:56.619Z,101187.09
2023-01-27T19:55:24.587Z,101181.88
2023-01-27T19:57:52.773Z,101180.16
2023-01-27T20:00:29.656Z,101188.75
2023-01-27T20:02:57.768Z,101194.81
2023-01-27T20:05:27.845Z,101180.09
2023-01-27T20:07:57.228Z,101191.34
2023-01-27T20:10:31.585Z,101190.44
2023-01-27T20:13:05.173Z,101180.00
2023-01-27T20:15:40.001Z,101184.25
2023-01-27T20:18:09.554Z,101185.97
2023-01-27T20:20:37.431Z,101179.06
2023-01-27T20:23:05.185Z,101184.25
2023-01-27T20:25:33.105Z,101185.13
2023-01-27T20:28:01.775Z,101181.63
2023-01-27T20:30:34.653Z,101179.09
2023-01-27T20:33:04.143Z,101173.88
2023-01-27T20:35:32.006Z,101177.34
2023-01-27T20:38:00.242Z,101182.50
2023-01-27T20:40:29.137Z,101182.47
2023-01-27T20:42:56.741Z,101184.16
2023-01-27T20:45:24.547Z,101181.56
2023-01-27T20:47:54.317Z,101187.66
2023-01-27T20:50:24.352Z,101178.97
2023-01-27T20:52:53.667Z,101185.88
2023-01-27T20:55:21.236Z,101184.16
2023-01-27T20:57:49.419Z,101172.94
2023-01-27T21:00:19.545Z,101172.91
2023-01-27T21:02:48.026Z,101172.88
2023-01-27T21:05:16.174Z,101165.06
2023-01-27T21:07:43.985Z,101157.25
2023-01-27T21:10:11.795Z,101154.66
2023-01-27T21:12:59.203Z,101151.25
2023-01-27T21:15:27.647Z,101149.50
2023-01-27T21:17:56.100Z,101165.91
2023-01-27T21:20:23.676Z,101159.88
2023-01-27T21:22:51.382Z,101160.81
2023-01-27T21:25:19.203Z,101161.75
2023-01-27T21:27:50.878Z,101151.38
2023-01-27T21:30:18.722Z,101151.38
2023-01-27T21:32:46.241Z,101144.44
2023-01-27T21:35:47.763Z,101147.94
2023-01-27T21:38:22.080Z,101142.72
2023-01-27T21:40:51.581Z,101138.31
2023-01-27T21:43:38.393Z,101131.38
2023-01-27T21:46:06.118Z,101120.06
2023-01-27T21:48:36.607Z,101116.53
2023-01-27T21:51:09.757Z,101123.38
2023-01-27T21:53:43.064Z,101118.19
2023-01-27T21:56:11.412Z,101118.19
2023-01-27T21:58:41.027Z,101118.19
2023-01-27T22:01:10.322Z,101116.38
2023-01-27T22:03:38.503Z,101116.44
2023-01-27T22:06:08.260Z,101114.66
2023-01-27T22:08:37.438Z,101118.06
2023-01-27T22:11:07.575Z,101124.97
2023-01-27T22:13:36.775Z,101112.03
2023-01-27T22:16:05.185Z,101106.84
2023-01-27T22:18:32.855Z,101108.53
2023-01-27T22:21:03.223Z,101111.97
2023-01-27T22:23:30.826Z,101112.00
2023-01-27T22:25:58.549Z,101104.25
2023-01-27T22:28:26.979Z,101099.06
2023-01-27T22:30:54.933Z,101099.94
2023-01-27T22:33:22.641Z,101086.91
2023-01-27T22:35:58.901Z,101089.44
2023-01-27T22:38:28.331Z,101088.63
2023-01-27T22:40:59.283Z,101084.28
2023-01-27T22:43:36.946Z,101080.00
2023-01-27T22:46:05.287Z,101075.66
2023-01-27T22:48:33.488Z,101072.25
2023-01-27T22:51:05.259Z,101074.84
2023-01-27T22:53:35.750Z,101067.03
2023-01-27T22:56:04.065Z,101073.91
2023-01-27T22:58:31.691Z,101074.78
2023-01-27T23:00:59.415Z,101072.19
2023-01-27T23:03:27.475Z,101073.00
2023-01-27T23:05:55.309Z,101074.78
2023-01-27T23:08:23.112Z,101066.22
2023-01-27T23:10:52.589Z,101061.81
2023-01-27T23:13:20.588Z,101066.94
2023-01-27T23:15:48.122Z,101066.94
2023-01-27T23:18:15.785Z,101066.06
2023-01-27T23:20:43.796Z,101071.19
2023-01-27T23:23:12.068Z,101072.09
2023-01-27T23:25:45.220Z,101066.91
2023-01-27T23:28:19.423Z,101068.59
2023-01-27T23:30:49.317Z,101071.19
2023-01-27T23:33:19.753Z,101072.03
2023-01-27T23:35:47.851Z,101073.72
2023-01-27T23:38:31.781Z,101085.81
2023-01-27T23:41:14.557Z,101093.53
2023-01-27T23:43:42.233Z,101095.28
2023-01-27T23:46:10.134Z,101088.41
2023-01-27T23:48:37.724Z,101086.75
2023-01-27T23:51:07.968Z,101072.97
2023-01-27T23:53:35.614Z,101067.78
2023-01-27T23:56:03.911Z,101072.09
2023-01-27T23:58:32.480Z,101075.53
